Time;durP1;ratioP1;P1;durP2;ratioP2;P2;SDS_P1;SDS_P2;PMS_P1;PMS_P2;Temp;Humidity;BMP_temperature;BMP_pressure;BME280_temperature;BME280_humidity;BME280_pressure;Samples;Min_cycle;Max_cycle;Signal;HPM_P1;HPM_P2
2022/01/24 00:02:18;;;;;;;2.57;2.07;;;-1.30;99.90;;;;;;5075393;28;20462;-88
2022/01/24 00:04:48;;;;;;;5.83;1.60;;;-1.20;99.90;;;;;;5064529;28;20441;-88
2022/01/24 00:07:19;;;;;;;1.40;1.30;;;-1.20;99.90;;;;;;5066936;28;20441;-88
2022/01/24 00:09:46;;;;;;;1.27;1.17;;;-1.10;99.90;;;;;;5069449;28;20502;-88
2022/01/24 00:12:18;;;;;;;2.20;1.43;;;-1.10;99.90;;;;;;5077616;28;20459;-89
2022/01/24 00:15:02;;;;;;;2.13;1.93;;;-1.10;99.90;;;;;;5072540;28;20446;-88
2022/01/24 00:17:35;;;;;;;2.03;1.43;;;-1.10;99.90;;;;;;5077415;28;20441;-88
2022/01/24 00:28:19;;;;;;;1.17;1.03;;;-1.00;99.90;;;;;;5078349;28;20421;-89
2022/01/24 00:30:47;;;;;;;1.10;1.00;;;-1.00;99.90;;;;;;5068704;28;20448;-89
2022/01/24 00:33:18;;;;;;;1.60;1.50;;;-1.00;99.90;;;;;;5068394;28;20434;-89
2022/01/24 00:35:46;;;;;;;1.00;0.90;;;-0.90;99.90;;;;;;5069793;28;20441;-90
2022/01/24 00:38:13;;;;;;;1.53;1.10;;;-0.90;99.90;;;;;;5066229;28;20457;-88
2022/01/24 00:40:43;;;;;;;1.40;1.30;;;-0.80;99.90;;;;;;5090280;28;20439;-88
2022/01/24 00:43:20;;;;;;;1.60;1.37;;;-0.80;99.90;;;;;;5088058;22;20551;-52
2022/01/24 00:45:57;;;;;;;1.77;1.67;;;-0.70;99.90;;;;;;5062276;28;20440;-53
2022/01/24 00:48:52;;;;;;;4.30;1.40;;;-0.70;99.90;;;;;;5060782;28;20451;-57
2022/01/24 00:54:42;;;;;;;3.03;2.73;;;-0.70;99.90;;;;;;5036927;28;20507;-57
2022/01/24 00:56:52;;;;;;;2.63;2.20;;;-0.80;99.90;;;;;;5063457;22;20807;-52
2022/01/24 00:59:19;;;;;;;3.50;3.10;;;-0.80;99.90;;;;;;5055034;28;20796;-50
2022/01/24 01:01:46;;;;;;;2.20;2.00;;;-0.70;99.90;;;;;;5062892;28;20975;-51
2022/01/24 01:04:15;;;;;;;3.00;2.10;;;-0.80;99.90;;;;;;5059582;28;20446;-48
2022/01/24 01:06:44;;;;;;;3.03;2.60;;;-1.00;99.90;;;;;;5053183;28;20445;-51
2022/01/24 01:20:11;;;;;;;2.20;2.00;;;-0.70;99.90;;;;;;5032302;28;20476;-51
2022/01/24 01:22:38;;;;;;;6.13;5.30;;;-0.70;99.90;;;;;;5041868;28;20461;-50
2022/01/24 01:25:06;;;;;;;7.03;5.87;;;-0.60;99.90;;;;;;5033422;28;20982;-50
2022/01/24 01:27:38;;;;;;;7.00;4.57;;;-0.60;99.90;;;;;;5032904;28;20464;-51
2022/01/24 01:30:14;;;;;;;10.97;8.07;;;-0.70;99.90;;;;;;5036895;28;20449;-53
2022/01/24 01:32:54;;;;;;;7.50;5.00;;;-0.80;99.90;;;;;;5032503;28;20487;-49
2022/01/24 01:35:40;;;;;;;4.23;3.87;;;-0.80;99.90;;;;;;5034768;28;21014;-50
2022/01/24 01:52:33;;;;;;;1.90;1.73;;;-0.70;99.90;;;;;;4996761;28;20440;-52
2022/01/24 01:55:13;;;;;;;3.77;2.53;;;-0.70;99.90;;;;;;5031863;28;20534;-49
2022/01/24 01:57:41;;;;;;;4.17;3.77;;;-0.60;99.90;;;;;;5036515;28;20544;-52
2022/01/24 02:00:10;;;;;;;5.17;3.93;;;-0.60;99.90;;;;;;5029782;28;20488;-49
2022/01/24 02:02:37;;;;;;;5.57;3.83;;;-0.70;99.90;;;;;;5036372;28;20519;-51
2022/01/24 02:05:05;;;;;;;3.77;3.37;;;-0.80;99.90;;;;;;5036097;28;20473;-51
2022/01/24 02:07:34;;;;;;;3.73;3.17;;;-0.80;99.90;;;;;;5031396;28;21031;-51
2022/01/24 02:10:00;;;;;;;2.80;2.60;;;-0.80;99.90;;;;;;5036613;28;20783;-52
2022/01/24 02:12:28;;;;;;;1.40;1.17;;;-0.80;99.90;;;;;;5042943;28;20443;-52
2022/01/24 02:14:59;;;;;;;1.17;1.10;;;-0.80;99.90;;;;;;5040807;28;20529;-51
2022/01/24 02:17:35;;;;;;;1.30;1.20;;;-0.80;99.90;;;;;;5032512;28;20568;-53
2022/01/24 02:20:24;;;;;;;2.13;2.00;;;-0.80;99.90;;;;;;5035516;28;20974;-51
2022/01/24 02:23:15;;;;;;;4.60;4.10;;;-0.70;99.90;;;;;;5031392;28;20531;-51
2022/01/24 02:25:40;;;;;;;5.30;4.00;;;-0.70;99.90;;;;;;5032116;28;20432;-51
2022/01/24 02:28:11;;;;;;;3.50;2.80;;;-1.10;99.90;;;;;;5031108;28;20521;-53
2022/01/24 02:30:51;;;;;;;3.13;2.83;;;-1.70;99.90;;;;;;5029093;28;21018;-51
2022/01/24 02:33:18;;;;;;;2.87;2.30;;;-1.90;99.90;;;;;;5037741;28;20478;-50
2022/01/24 02:35:46;;;;;;;2.57;2.27;;;-1.90;99.90;;;;;;5034771;28;20471;-50
2022/01/24 02:38:25;;;;;;;2.33;2.20;;;-1.70;99.90;;;;;;5034089;28;20487;-50
2022/01/24 02:49:06;;;;;;;5.73;3.70;;;-1.10;99.90;;;;;;5035791;28;20485;-52
2022/01/24 02:51:47;;;;;;;3.57;3.33;;;-1.30;99.90;;;;;;5039510;28;21017;-51
2022/01/24 02:54:23;;;;;;;6.10;5.13;;;-1.40;99.90;;;;;;5040534;28;20501;-50
2022/01/24 02:56:51;;;;;;;5.97;4.73;;;-1.30;99.90;;;;;;5033312;28;20452;-51
2022/01/24 02:59:18;;;;;;;4.63;4.13;;;-1.60;99.90;;;;;;5031401;28;20772;-50
2022/01/24 03:01:46;;;;;;;4.10;3.80;;;-1.80;99.90;;;;;;5034940;28;20483;-50
2022/01/24 03:04:13;;;;;;;5.73;4.77;;;-2.00;99.90;;;;;;5044685;28;20465;-48
2022/01/24 03:06:40;;;;;;;3.73;3.43;;;-2.20;99.90;;;;;;5031101;28;20478;-51
2022/01/24 03:09:08;;;;;;;4.90;3.63;;;-2.30;99.90;;;;;;5032311;28;20497;-52
2022/01/24 03:11:58;;;;;;;4.27;3.87;;;-2.20;99.90;;;;;;5045917;28;20450;-51
2022/01/24 03:14:27;;;;;;;3.27;2.97;;;-2.00;99.90;;;;;;5036576;28;20488;-48
2022/01/24 03:16:55;;;;;;;3.70;3.40;;;-1.80;99.90;;;;;;5025047;28;20484;-49
2022/01/24 03:19:22;;;;;;;3.53;3.23;;;-1.80;99.90;;;;;;5036367;28;21018;-52
2022/01/24 03:21:48;;;;;;;3.37;2.70;;;-1.70;99.90;;;;;;5041843;28;20976;-51
2022/01/24 03:24:16;;;;;;;2.53;2.43;;;-1.50;99.90;;;;;;5035406;28;20454;-50
2022/01/24 03:26:45;;;;;;;5.10;2.57;;;-1.50;99.90;;;;;;5036010;28;20735;-51
2022/01/24 03:29:12;;;;;;;3.30;2.50;;;-1.40;99.90;;;;;;5034977;28;20440;-53
2022/01/24 03:31:40;;;;;;;7.07;3.63;;;-1.40;99.90;;;;;;5028313;28;20452;-52
2022/01/24 03:34:07;;;;;;;4.73;3.80;;;-1.50;99.90;;;;;;5033407;28;20447;-52
2022/01/24 03:36:34;;;;;;;3.73;3.43;;;-1.80;99.90;;;;;;5038647;28;20493;-50
2022/01/24 03:39:01;;;;;;;4.00;3.60;;;-1.80;99.90;;;;;;5040962;28;20517;-50
2022/01/24 03:41:28;;;;;;;4.03;3.73;;;-2.20;99.90;;;;;;5028170;28;20549;-50
2022/01/24 03:44:02;;;;;;;3.53;3.23;;;-2.30;99.90;;;;;;5035386;28;20497;-51
2022/01/24 03:46:36;;;;;;;3.80;3.50;;;-2.50;99.90;;;;;;5044877;28;20936;-47
2022/01/24 03:49:20;;;;;;;3.93;3.40;;;-2.30;99.90;;;;;;5032963;28;20446;-51
2022/01/24 03:51:47;;;;;;;3.77;3.43;;;-2.20;99.90;;;;;;5030679;28;20868;-50
2022/01/24 03:54:13;;;;;;;3.97;2.23;;;-2.10;99.90;;;;;;5034018;28;20487;-51
2022/01/24 03:56:40;;;;;;;2.10;2.00;;;-2.00;99.90;;;;;;5030620;28;20772;-50
2022/01/24 03:59:09;;;;;;;3.07;2.87;;;-1.90;99.90;;;;;;5033951;28;20766;-52
2022/01/24 04:01:36;;;;;;;3.43;3.13;;;-1.80;99.90;;;;;;5037630;28;20478;-50
2022/01/24 04:04:03;;;;;;;3.93;2.87;;;-1.80;99.90;;;;;;5038504;28;20477;-50
2022/01/24 04:06:29;;;;;;;2.97;2.03;;;-1.80;99.90;;;;;;5036604;28;20562;-51
2022/01/24 04:08:56;;;;;;;2.50;2.30;;;-1.80;99.90;;;;;;5028242;28;20491;-52
2022/01/24 04:11:23;;;;;;;3.57;2.67;;;-1.90;99.90;;;;;;5037310;28;20890;-50
2022/01/24 04:13:58;;;;;;;3.23;2.60;;;-1.90;99.90;;;;;;5040460;28;20941;-49
2022/01/24 04:16:29;;;;;;;2.43;2.23;;;-1.90;99.90;;;;;;5030964;28;20831;-51
2022/01/24 04:19:11;;;;;;;3.63;2.87;;;-1.90;99.90;;;;;;5024857;28;20481;-49
2022/01/24 04:21:38;;;;;;;3.50;3.00;;;-2.00;99.90;;;;;;5044528;28;20456;-49
2022/01/24 04:24:09;;;;;;;2.07;1.87;;;-2.30;99.90;;;;;;5027176;28;20446;-50
2022/01/24 04:26:37;;;;;;;2.10;1.50;;;-2.20;99.90;;;;;;5029573;28;20454;-51
2022/01/24 04:29:07;;;;;;;2.03;1.83;;;-2.20;99.90;;;;;;5028761;28;20511;-50
2022/01/24 04:31:35;;;;;;;2.17;2.00;;;-2.20;99.90;;;;;;5036822;28;20476;-51
2022/01/24 04:34:03;;;;;;;2.30;2.10;;;-2.10;99.90;;;;;;5035580;28;20449;-50
2022/01/24 04:36:30;;;;;;;2.97;2.40;;;-2.10;99.90;;;;;;5029110;28;20497;-52
2022/01/24 04:38:58;;;;;;;1.80;1.70;;;-2.10;99.90;;;;;;5038799;28;20513;-49
2022/01/24 04:41:28;;;;;;;2.10;2.00;;;-2.10;99.90;;;;;;5035791;28;20453;-50
2022/01/24 04:44:05;;;;;;;1.83;1.63;;;-2.10;99.90;;;;;;5029502;28;21029;-50
2022/01/24 04:46:57;;;;;;;2.27;1.93;;;-2.20;99.90;;;;;;5030361;28;20455;-49
2022/01/24 04:52:21;;;;;;;5.60;2.50;;;-2.30;99.90;;;;;;5024504;28;20451;-50
2022/01/24 04:54:48;;;;;;;3.70;3.00;;;-2.20;99.90;;;;;;5034978;28;20441;-51
2022/01/24 04:57:17;;;;;;;2.97;2.67;;;-2.20;99.90;;;;;;5030419;28;20568;-50
2022/01/24 04:59:47;;;;;;;2.17;2.07;;;-2.20;99.90;;;;;;5038673;28;20528;-50
2022/01/24 05:02:14;;;;;;;1.90;1.80;;;-2.40;99.90;;;;;;5032887;28;20488;-51
2022/01/24 05:04:43;;;;;;;2.70;2.10;;;-2.40;99.90;;;;;;5036190;28;20483;-51
2022/01/24 05:07:10;;;;;;;2.00;1.80;;;-2.40;99.90;;;;;;5038595;28;20501;-50
2022/01/24 05:09:41;;;;;;;2.80;2.13;;;-2.40;99.90;;;;;;5036748;28;20547;-50
2022/01/24 05:12:16;;;;;;;4.00;3.20;;;-2.90;99.90;;;;;;5032396;28;20497;-48
2022/01/24 05:25:47;;;;;;;3.63;2.80;;;-2.70;99.90;;;;;;5036421;28;20831;-48
2022/01/24 05:28:14;;;;;;;2.97;2.47;;;-2.70;99.90;;;;;;5043173;28;20453;-50
2022/01/24 05:30:41;;;;;;;6.40;5.70;;;-2.80;99.90;;;;;;5032987;28;20892;-50
2022/01/24 05:33:08;;;;;;;4.80;4.30;;;-2.80;99.90;;;;;;5033461;28;21565;-50
2022/01/24 05:35:37;;;;;;;5.60;4.10;;;-2.80;99.90;;;;;;5043675;28;20942;-50
2022/01/24 05:38:05;;;;;;;11.00;5.20;;;-2.80;99.90;;;;;;5044149;28;20493;-50
2022/01/24 05:40:32;;;;;;;8.90;7.43;;;-2.70;99.90;;;;;;5030988;28;20501;-50
2022/01/24 05:42:59;;;;;;;5.70;4.60;;;-2.70;99.90;;;;;;5027740;28;20769;-49
2022/01/24 05:45:26;;;;;;;6.33;5.60;;;-2.70;99.90;;;;;;5042206;28;20470;-47
2022/01/24 05:47:53;;;;;;;4.63;4.00;;;-2.70;99.90;;;;;;5030676;28;20509;-50
2022/01/24 05:50:20;;;;;;;5.90;5.30;;;-2.60;99.90;;;;;;5037101;28;20553;-51
2022/01/24 05:52:48;;;;;;;4.97;4.53;;;-2.60;99.90;;;;;;5045943;28;20450;-51
2022/01/24 05:55:16;;;;;;;6.43;4.43;;;-2.70;99.90;;;;;;5030535;28;20481;-50
2022/01/24 05:57:43;;;;;;;6.67;5.97;;;-2.70;99.90;;;;;;5029940;28;20474;-50
2022/01/24 06:00:13;;;;;;;11.60;7.27;;;-2.60;99.90;;;;;;5031323;28;20563;-50
2022/01/24 06:02:41;;;;;;;19.40;12.60;;;-2.60;99.90;;;;;;5030066;28;20547;-50
2022/01/24 06:05:08;;;;;;;8.83;5.53;;;-2.60;99.90;;;;;;5037122;28;20485;-50
2022/01/24 06:07:36;;;;;;;6.77;4.93;;;-2.60;99.90;;;;;;5035948;28;20556;-51
2022/01/24 06:10:05;;;;;;;8.43;6.87;;;-2.60;99.90;;;;;;5043410;28;20488;-51
2022/01/24 06:12:31;;;;;;;22.97;16.60;;;-2.60;99.90;;;;;;5032951;28;20478;-50
2022/01/24 06:14:58;;;;;;;63.57;35.03;;;-2.60;99.90;;;;;;5027964;28;20546;-52
2022/01/24 06:17:25;;;;;;;14.07;8.80;;;-2.60;99.90;;;;;;5040151;28;20871;-52
2022/01/24 06:19:52;;;;;;;5.30;4.00;;;-2.60;99.90;;;;;;5028304;28;20581;-52
2022/01/24 06:22:21;;;;;;;10.27;7.37;;;-2.60;99.90;;;;;;5023130;28;20485;-51
2022/01/24 06:24:48;;;;;;;5.80;3.50;;;-2.70;99.90;;;;;;5027621;28;20826;-50
2022/01/24 06:27:16;;;;;;;3.23;3.03;;;-2.70;99.90;;;;;;5030337;28;20489;-51
2022/01/24 06:29:43;;;;;;;5.53;4.80;;;-2.80;99.90;;;;;;5025282;28;20481;-52
2022/01/24 06:32:10;;;;;;;5.83;5.33;;;-3.00;99.90;;;;;;5029423;28;20492;-49
2022/01/24 06:34:37;;;;;;;10.43;5.47;;;-3.00;99.90;;;;;;5045593;28;21031;-48
2022/01/24 06:37:05;;;;;;;5.07;4.67;;;-2.90;99.90;;;;;;5034623;28;20497;-52
2022/01/24 06:39:32;;;;;;;7.77;6.23;;;-3.00;99.90;;;;;;5035687;28;20524;-51
2022/01/24 06:42:11;;;;;;;5.10;4.60;;;-2.90;99.90;;;;;;5045757;28;20865;-50
2022/01/24 06:44:40;;;;;;;8.10;5.37;;;-3.00;99.90;;;;;;5040447;28;20959;-51
2022/01/24 06:47:08;;;;;;;10.37;8.27;;;-3.00;99.90;;;;;;5031188;28;20490;-51
2022/01/24 06:49:36;;;;;;;17.40;12.50;;;-3.10;99.90;;;;;;5037077;28;20471;-51
2022/01/24 06:52:03;;;;;;;15.00;10.57;;;-3.10;99.90;;;;;;5041528;28;20465;-51
2022/01/24 06:54:30;;;;;;;8.87;7.43;;;-3.20;99.90;;;;;;5037776;28;20481;-51
2022/01/24 06:56:57;;;;;;;6.60;6.00;;;-3.20;99.90;;;;;;5035593;28;20555;-51
2022/01/24 06:59:24;;;;;;;4.87;4.27;;;-3.20;99.90;;;;;;5088312;23;20489;-82
2022/01/24 07:01:53;;;;;;;4.50;4.20;;;-3.10;99.90;;;;;;5064990;28;20517;-83
2022/01/24 07:04:20;;;;;;;5.37;4.27;;;-3.00;99.90;;;;;;5058024;28;20510;-83
2022/01/24 07:06:47;;;;;;;9.80;5.30;;;-3.00;99.90;;;;;;5066969;28;20870;-83
2022/01/24 07:09:14;;;;;;;12.50;5.90;;;-3.20;99.90;;;;;;5076715;28;20994;-83
2022/01/24 07:11:41;;;;;;;7.30;5.47;;;-3.20;99.90;;;;;;5064278;28;20511;-83
2022/01/24 07:14:12;;;;;;;5.47;4.03;;;-3.10;99.90;;;;;;5063514;28;20503;-82
2022/01/24 07:17:01;;;;;;;4.27;3.80;;;-3.10;99.90;;;;;;5073690;28;20443;-82
2022/01/24 07:19:30;;;;;;;4.67;4.20;;;-3.00;99.90;;;;;;5052568;28;20988;-83
2022/01/24 07:21:58;;;;;;;4.80;3.80;;;-2.90;99.90;;;;;;5062098;28;20452;-82
2022/01/24 07:24:26;;;;;;;6.27;4.07;;;-2.90;99.90;;;;;;5065848;28;20477;-82
2022/01/24 07:26:53;;;;;;;5.57;4.40;;;-2.90;99.90;;;;;;5065112;28;20474;-82
2022/01/24 07:29:21;;;;;;;6.63;5.40;;;-2.90;99.90;;;;;;5060262;28;20440;-83
2022/01/24 07:31:48;;;;;;;9.00;5.37;;;-2.90;99.90;;;;;;5060232;28;20523;-83
2022/01/24 07:34:16;;;;;;;6.70;5.10;;;-2.90;99.90;;;;;;5066374;28;20421;-83
2022/01/24 07:36:44;;;;;;;7.40;4.50;;;-2.90;99.90;;;;;;5062980;28;20563;-82
2022/01/24 07:39:12;;;;;;;4.70;4.13;;;-3.00;99.90;;;;;;5057678;28;20890;-82
2022/01/24 07:41:43;;;;;;;6.90;4.93;;;-3.00;99.90;;;;;;5066764;28;20461;-82
2022/01/24 07:44:11;;;;;;;10.03;4.10;;;-3.00;99.90;;;;;;5069512;28;20448;-83
2022/01/24 07:46:38;;;;;;;10.90;4.60;;;-3.00;99.90;;;;;;5061032;28;20446;-83
2022/01/24 07:49:08;;;;;;;6.20;4.23;;;-3.00;99.90;;;;;;5064523;28;20450;-82
2022/01/24 07:51:35;;;;;;;5.70;4.60;;;-3.00;99.90;;;;;;5070296;28;20546;-82
2022/01/24 07:54:04;;;;;;;9.70;4.30;;;-3.00;99.90;;;;;;5056969;28;20471;-82
2022/01/24 07:56:31;;;;;;;6.60;4.17;;;-3.00;99.90;;;;;;5062221;28;20499;-82
2022/01/24 07:58:58;;;;;;;4.33;3.50;;;-3.00;99.90;;;;;;5069602;28;20581;-85
2022/01/24 08:01:26;;;;;;;5.20;4.10;;;-2.90;99.90;;;;;;5059309;28;20977;-85
2022/01/24 08:03:53;;;;;;;5.20;4.10;;;-2.90;99.90;;;;;;5049835;28;20447;-85
2022/01/24 08:06:20;;;;;;;10.43;5.27;;;-2.90;99.90;;;;;;5062622;28;20480;-84
2022/01/24 08:08:47;;;;;;;9.93;6.80;;;-2.90;99.90;;;;;;5062613;28;20715;-85
2022/01/24 08:11:18;;;;;;;8.67;7.73;;;-2.80;99.90;;;;;;5058361;28;20804;-85
2022/01/24 08:13:46;;;;;;;5.37;4.83;;;-2.90;99.90;;;;;;5053428;28;20449;-85
2022/01/24 08:16:13;;;;;;;13.90;6.70;;;-3.00;99.90;;;;;;5064003;28;20467;-85
2022/01/24 08:18:40;;;;;;;17.00;7.20;;;-3.20;99.90;;;;;;5057916;28;20543;-84
2022/01/24 08:21:07;;;;;;;13.70;6.20;;;-3.30;99.90;;;;;;5049947;28;20473;-85
2022/01/24 08:23:34;;;;;;;5.90;5.17;;;-3.30;99.90;;;;;;5063516;28;20949;-85
2022/01/24 08:26:01;;;;;;;5.70;4.87;;;-3.30;99.90;;;;;;5065301;28;20476;-84
2022/01/24 08:28:29;;;;;;;5.10;4.60;;;-3.20;99.90;;;;;;5053781;28;20481;-85
2022/01/24 08:30:56;;;;;;;4.77;4.33;;;-3.10;99.90;;;;;;5062071;28;20950;-85
2022/01/24 08:33:23;;;;;;;4.93;3.77;;;-3.00;99.90;;;;;;5067707;28;20871;-85
2022/01/24 08:35:51;;;;;;;7.20;4.13;;;-3.20;99.90;;;;;;5053976;28;20452;-85
2022/01/24 08:38:18;;;;;;;5.67;4.70;;;-3.20;99.90;;;;;;5058018;28;20526;-85
2022/01/24 08:40:48;;;;;;;6.90;5.90;;;-3.10;99.90;;;;;;5059327;28;20480;-85
2022/01/24 08:43:23;;;;;;;5.53;4.17;;;-3.20;99.90;;;;;;5057541;28;20449;-85
2022/01/24 08:45:57;;;;;;;6.87;5.50;;;-3.50;99.90;;;;;;5058742;28;20491;-85
2022/01/24 08:48:25;;;;;;;11.23;8.93;;;-3.40;99.90;;;;;;5061737;28;20455;-85
2022/01/24 08:50:55;;;;;;;7.60;6.80;;;-3.30;99.90;;;;;;5062532;28;20448;-85
2022/01/24 08:53:23;;;;;;;10.50;7.77;;;-3.30;99.90;;;;;;5050387;28;20937;-86
2022/01/24 08:55:50;;;;;;;9.77;8.77;;;-3.20;99.90;;;;;;5057664;28;20926;-84
2022/01/24 08:58:18;;;;;;;9.03;8.03;;;-3.10;99.90;;;;;;5068731;28;20524;-85
2022/01/24 09:00:47;;;;;;;11.23;9.23;;;-3.00;99.90;;;;;;5066809;28;20512;-85
2022/01/24 09:03:15;;;;;;;22.70;15.57;;;-2.90;99.90;;;;;;5058651;28;20853;-85
2022/01/24 09:05:42;;;;;;;11.33;9.60;;;-2.80;99.90;;;;;;5065339;28;20499;-86
2022/01/24 09:08:10;;;;;;;10.87;9.17;;;-2.70;99.90;;;;;;5062663;28;20476;-87
2022/01/24 09:10:40;;;;;;;7.37;6.60;;;-2.70;99.90;;;;;;5057413;28;20489;-86
2022/01/24 09:13:07;;;;;;;10.40;6.03;;;-2.70;99.90;;;;;;5064880;28;20507;-87
2022/01/24 09:15:34;;;;;;;11.50;7.10;;;-2.80;99.90;;;;;;5071764;28;20501;-86
2022/01/24 09:18:02;;;;;;;23.43;9.80;;;-2.80;99.90;;;;;;5054071;28;20441;-87
2022/01/24 09:20:34;;;;;;;22.73;9.97;;;-2.80;99.90;;;;;;5053233;28;20477;-86
2022/01/24 09:23:01;;;;;;;17.00;8.60;;;-2.80;99.90;;;;;;5054730;28;20464;-86
2022/01/24 09:25:28;;;;;;;32.23;8.50;;;-2.80;99.90;;;;;;5053153;28;20446;-86
2022/01/24 09:27:55;;;;;;;8.23;7.40;;;-2.80;99.90;;;;;;5058952;28;20508;-86
2022/01/24 09:30:24;;;;;;;10.97;9.83;;;-2.70;99.90;;;;;;5067866;28;20449;-86
2022/01/24 09:32:52;;;;;;;9.13;8.23;;;-2.70;99.90;;;;;;5055160;28;20455;-86
2022/01/24 09:35:21;;;;;;;7.87;5.10;;;-2.70;99.90;;;;;;5053205;28;20491;-86
2022/01/24 09:37:50;;;;;;;9.37;7.20;;;-2.70;99.90;;;;;;5054770;28;20539;-85
2022/01/24 09:40:19;;;;;;;13.03;7.00;;;-2.80;99.90;;;;;;5053807;28;20512;-85
2022/01/24 09:42:47;;;;;;;7.67;6.87;;;-2.80;99.90;;;;;;5059853;28;20448;-85
2022/01/24 09:45:16;;;;;;;15.67;11.80;;;-2.90;99.90;;;;;;5058698;28;20481;-86
2022/01/24 09:47:43;;;;;;;23.40;18.50;;;-2.90;99.90;;;;;;5071962;28;20567;-85
2022/01/24 09:50:12;;;;;;;23.63;20.77;;;-2.90;99.90;;;;;;5076519;28;20782;-86
2022/01/24 09:52:41;;;;;;;16.33;14.93;;;-2.90;99.90;;;;;;5055946;28;20453;-85
2022/01/24 09:55:10;;;;;;;12.10;11.00;;;-2.90;99.90;;;;;;5063034;28;20445;-85
2022/01/24 09:57:37;;;;;;;11.30;10.40;;;-2.90;99.90;;;;;;5054261;28;20442;-85
2022/01/24 10:00:09;;;;;;;8.03;7.23;;;-2.80;99.90;;;;;;5055865;28;21077;-86
2022/01/24 10:02:36;;;;;;;7.87;7.17;;;-2.80;99.90;;;;;;5060015;28;20450;-86
2022/01/24 10:05:15;;;;;;;6.07;5.53;;;-2.70;99.90;;;;;;5067594;28;20508;-86
2022/01/24 10:07:50;;;;;;;6.27;5.70;;;-2.60;99.90;;;;;;5056164;28;20434;-87
2022/01/24 10:10:30;;;;;;;6.43;5.93;;;-2.60;99.90;;;;;;5060353;28;20936;-86
2022/01/24 10:16:29;;;;;;;6.50;5.57;;;-2.40;99.90;;;;;;5056762;28;20434;-86
2022/01/24 10:19:10;;;;;;;6.37;5.73;;;-2.30;99.90;;;;;;5060187;28;20846;-86
2022/01/24 10:21:39;;;;;;;7.20;4.53;;;-2.30;99.90;;;;;;5061473;28;20573;-86
2022/01/24 10:24:06;;;;;;;5.53;4.50;;;-2.20;99.90;;;;;;5059001;28;20448;-86
2022/01/24 10:26:34;;;;;;;4.47;4.07;;;-2.20;99.90;;;;;;5054376;28;20492;-86
2022/01/24 10:29:01;;;;;;;3.80;3.50;;;-2.00;99.90;;;;;;5064209;28;20433;-86
2022/01/24 10:31:29;;;;;;;3.10;2.90;;;-1.90;99.90;;;;;;5051506;28;20469;-86
2022/01/24 10:34:05;;;;;;;3.43;3.13;;;-1.70;99.90;;;;;;5058167;28;20528;-86
2022/01/24 10:36:38;;;;;;;3.63;2.80;;;-1.60;99.90;;;;;;5058764;28;20952;-85
2022/01/24 10:39:29;;;;;;;3.20;2.90;;;-1.50;99.90;;;;;;5063922;28;20433;-86
2022/01/24 10:42:52;;;;;;;2.97;2.77;;;-1.40;99.90;;;;;;5052636;28;20840;-86
2022/01/24 10:45:22;;;;;;;2.73;2.53;;;-1.30;99.90;;;;;;5057767;28;20451;-86
2022/01/24 10:47:54;;;;;;;2.57;2.37;;;-1.20;99.90;;;;;;5058734;28;20443;-85
2022/01/24 10:50:24;;;;;;;4.50;4.10;;;-1.30;99.90;;;;;;5060392;28;20437;-85
2022/01/24 10:52:52;;;;;;;4.37;3.73;;;-1.20;99.90;;;;;;5066789;28;20503;-85
2022/01/24 10:55:21;;;;;;;2.83;2.63;;;-1.10;99.90;;;;;;5066883;28;20472;-86
2022/01/24 10:57:51;;;;;;;4.70;3.90;;;-1.00;99.90;;;;;;5068504;28;20480;-85
2022/01/24 11:00:21;;;;;;;6.87;6.27;;;-1.00;99.90;;;;;;5071149;28;20478;-85
2022/01/24 11:02:52;;;;;;;3.30;2.90;;;-1.00;99.90;;;;;;5064439;28;20425;-86
2022/01/24 11:05:21;;;;;;;1.87;1.77;;;-1.00;99.90;;;;;;5070524;28;20508;-85
2022/01/24 11:07:50;;;;;;;2.20;2.00;;;-0.90;99.90;;;;;;5071684;28;20468;-85
2022/01/24 11:10:17;;;;;;;3.20;3.00;;;-0.80;99.90;;;;;;5067658;28;20439;-85
2022/01/24 11:12:45;;;;;;;2.23;2.03;;;-0.70;99.90;;;;;;5068655;28;20447;-85
2022/01/24 11:15:13;;;;;;;3.00;2.30;;;-0.60;99.90;;;;;;5076021;28;20800;-85
2022/01/24 11:17:41;;;;;;;2.50;2.30;;;-0.50;99.90;;;;;;5062984;28;20434;-85
2022/01/24 11:20:12;;;;;;;2.47;2.27;;;-0.40;99.90;;;;;;5065980;28;20478;-85
2022/01/24 11:22:44;;;;;;;4.20;3.30;;;-0.30;99.90;;;;;;5069316;28;20534;-85
2022/01/24 11:25:12;;;;;;;2.90;2.70;;;-0.30;99.90;;;;;;5072763;28;20438;-85
2022/01/24 11:27:42;;;;;;;3.40;3.10;;;-0.20;99.90;;;;;;5070019;28;21018;-85
2022/01/24 11:30:11;;;;;;;2.83;2.63;;;-0.20;99.90;;;;;;5063108;28;20521;-85
2022/01/24 11:32:46;;;;;;;3.70;3.40;;;-0.10;99.90;;;;;;5060411;28;21273;-85
2022/01/24 11:35:13;;;;;;;4.93;4.30;;;-0.10;99.90;;;;;;5059102;28;20443;-85
2022/01/24 11:37:42;;;;;;;4.10;3.50;;;0.00;99.90;;;;;;5056633;28;20479;-85
2022/01/24 11:40:13;;;;;;;5.23;3.53;;;0.00;99.90;;;;;;5057395;28;20528;-85
2022/01/24 11:42:42;;;;;;;3.17;2.70;;;0.10;99.90;;;;;;5059110;28;21132;-85
2022/01/24 11:45:14;;;;;;;6.37;4.90;;;0.10;99.90;;;;;;5056807;28;20435;-85
2022/01/24 11:47:44;;;;;;;3.57;3.37;;;0.20;99.90;;;;;;5059038;28;20487;-85
2022/01/24 11:50:31;;;;;;;2.87;1.90;;;0.20;99.90;;;;;;5056003;28;20443;-85
2022/01/24 11:52:59;;;;;;;3.90;3.60;;;0.30;99.90;;;;;;5073480;28;20796;-83
2022/01/24 11:55:34;;;;;;;5.63;4.00;;;0.30;99.90;;;;;;5064698;28;20845;-83
2022/01/24 11:58:03;;;;;;;5.10;4.60;;;0.30;99.90;;;;;;5057662;28;20487;-84
2022/01/24 12:00:37;;;;;;;4.77;4.40;;;0.30;99.90;;;;;;5068434;28;20493;-84
2022/01/24 12:03:15;;;;;;;5.07;4.57;;;0.40;99.90;;;;;;5068836;28;20444;-84
2022/01/24 12:05:44;;;;;;;6.50;4.97;;;0.40;99.90;;;;;;5054902;28;20506;-84
2022/01/24 12:08:13;;;;;;;7.90;6.00;;;0.40;99.90;;;;;;5059278;28;20479;-84
2022/01/24 12:10:44;;;;;;;4.83;4.43;;;0.40;99.90;;;;;;5060973;28;20484;-84
2022/01/24 12:13:18;;;;;;;3.80;3.20;;;0.50;99.90;;;;;;5059473;28;20643;-84
2022/01/24 12:16:03;;;;;;;2.77;2.57;;;0.50;99.90;;;;;;5059284;28;20494;-84
2022/01/24 12:19:00;;;;;;;4.60;3.20;;;0.60;99.90;;;;;;5053072;28;20809;-85
2022/01/24 12:21:30;;;;;;;3.20;2.90;;;0.60;99.90;;;;;;5061510;28;20486;-84
2022/01/24 12:24:00;;;;;;;3.20;2.90;;;0.60;99.90;;;;;;5063928;28;20943;-84
2022/01/24 12:26:30;;;;;;;4.30;3.30;;;0.70;99.90;;;;;;5054077;28;20453;-84
2022/01/24 12:29:02;;;;;;;3.90;3.50;;;0.70;99.90;;;;;;5064872;28;20479;-84
2022/01/24 12:31:33;;;;;;;6.63;3.23;;;0.80;99.90;;;;;;5069347;28;20591;-84
2022/01/24 12:34:09;;;;;;;4.60;4.20;;;0.80;99.90;;;;;;5059319;28;20473;-84
2022/01/24 12:37:02;;;;;;;4.03;3.63;;;0.90;99.90;;;;;;5061999;28;20439;-84
2022/01/24 12:39:37;;;;;;;4.60;4.03;;;0.90;99.90;;;;;;5063750;28;20932;-84
2022/01/24 12:42:12;;;;;;;3.70;3.40;;;1.00;99.90;;;;;;5066869;28;20539;-84
2022/01/24 12:47:27;;;;;;;3.50;3.30;;;1.00;99.90;;;;;;5058475;28;20446;-84
2022/01/24 12:49:57;;;;;;;3.73;3.43;;;1.10;99.90;;;;;;5060032;28;20453;-84
2022/01/24 12:52:26;;;;;;;3.70;3.30;;;1.10;99.90;;;;;;5071291;28;20462;-84
2022/01/24 12:54:55;;;;;;;5.27;4.17;;;1.10;99.90;;;;;;5056930;28;20819;-84
2022/01/24 12:57:29;;;;;;;3.70;3.40;;;1.20;99.90;;;;;;5060427;28;20511;-84
2022/01/24 12:59:58;;;;;;;4.53;4.13;;;1.20;99.90;;;;;;5056714;28;20452;-84
2022/01/24 13:02:27;;;;;;;4.60;4.27;;;1.20;99.90;;;;;;5061935;28;20479;-84
2022/01/24 13:05:04;;;;;;;4.30;3.90;;;1.30;99.90;;;;;;5062296;28;20448;-84
2022/01/24 13:07:32;;;;;;;5.37;4.30;;;1.30;99.90;;;;;;5064647;28;20891;-84
2022/01/24 13:10:10;;;;;;;4.57;4.17;;;1.40;99.90;;;;;;5067416;28;20437;-81
2022/01/24 13:12:38;;;;;;;4.90;4.50;;;1.40;99.90;;;;;;5058791;28;20495;-84
2022/01/24 13:15:14;;;;;;;4.60;3.73;;;1.50;99.90;;;;;;5060036;28;20475;-84
2022/01/24 13:21:01;;;;;;;4.60;3.73;;;1.50;99.90;;;;;;5062292;28;20447;-83
2022/01/24 13:23:28;;;;;;;6.50;4.77;;;1.50;99.90;;;;;;5062458;28;20433;-84
2022/01/24 13:25:56;;;;;;;4.43;4.03;;;1.50;99.90;;;;;;5061780;28;20437;-84
2022/01/24 13:28:23;;;;;;;4.87;4.10;;;1.50;99.90;;;;;;5076898;28;20514;-84
2022/01/24 13:30:57;;;;;;;8.87;5.00;;;1.50;99.90;;;;;;5068651;28;20860;-84
2022/01/24 13:33:25;;;;;;;4.30;3.63;;;1.60;99.90;;;;;;5062177;28;20444;-84
2022/01/24 13:35:56;;;;;;;4.50;3.83;;;1.50;99.90;;;;;;5047990;28;20467;-84
2022/01/24 13:38:25;;;;;;;3.87;3.50;;;1.60;99.90;;;;;;5069642;28;20996;-84
2022/01/24 13:40:55;;;;;;;5.10;4.07;;;1.60;99.90;;;;;;5069381;28;20476;-84
2022/01/24 13:43:38;;;;;;;5.60;4.00;;;1.60;99.90;;;;;;5060719;28;20918;-84
2022/01/24 13:46:08;;;;;;;5.63;3.37;;;1.60;99.90;;;;;;5061496;28;20507;-83
2022/01/24 13:48:45;;;;;;;4.57;4.17;;;1.70;99.90;;;;;;5072697;28;20447;-84
2022/01/24 13:51:15;;;;;;;4.30;3.90;;;1.70;99.90;;;;;;5059428;28;20474;-83
2022/01/24 13:53:44;;;;;;;4.47;3.23;;;1.70;99.90;;;;;;5061066;28;20438;-84
2022/01/24 13:56:28;;;;;;;3.57;3.27;;;1.70;99.90;;;;;;5064605;28;20934;-83
2022/01/24 13:59:14;;;;;;;4.80;3.63;;;1.70;99.90;;;;;;5068067;28;20448;-84
2022/01/24 14:01:58;;;;;;;5.03;3.53;;;1.70;99.90;;;;;;5064457;28;21008;-84
2022/01/24 14:04:34;;;;;;;4.30;3.90;;;1.80;99.90;;;;;;5057262;28;20498;-84
2022/01/24 14:07:05;;;;;;;4.03;3.47;;;1.80;99.90;;;;;;5053135;28;20950;-84
2022/01/24 14:09:39;;;;;;;4.07;3.20;;;1.80;99.90;;;;;;5062014;28;20476;-82
2022/01/24 14:12:08;;;;;;;3.30;3.00;;;1.80;99.90;;;;;;5054667;28;20543;-84
2022/01/24 14:14:48;;;;;;;3.30;3.00;;;1.70;99.90;;;;;;5058689;28;20848;-83